Time;durP1;ratioP1;P1;durP2;ratioP2;P2;SDS_P1;SDS_P2;PMS_P1;PMS_P2;Temp;Humidity;BMP_temperature;BMP_pressure;BME280_temperature;BME280_humidity;BME280_pressure;Samples;Min_cycle;Max_cycle;Signal;HPM_P1;HPM_P2
2023/10/19 00:00:36;;;;;;;10.23;9.23;;;22.40;95.00;;;;;;6212860;28;89152;-69
2023/10/19 00:03:38;;;;;;;10.45;9.45;;;22.40;95.10;;;;;;6206473;28;90110;-70
2023/10/19 00:06:40;;;;;;;11.73;10.50;;;22.40;95.20;;;;;;6221701;28;89049;-70
2023/10/19 00:09:46;;;;;;;11.65;10.45;;;22.30;95.10;;;;;;6207009;28;89102;-69
2023/10/19 00:12:54;;;;;;;10.73;9.70;;;22.40;95.20;;;;;;6228924;28;89196;-71
2023/10/19 00:15:58;;;;;;;13.50;10.20;;;22.30;95.10;;;;;;6214293;28;89072;-69
2023/10/19 00:18:59;;;;;;;15.80;10.90;;;22.30;95.60;;;;;;6204711;28;89458;-70
2023/10/19 00:22:08;;;;;;;12.90;10.30;;;22.30;95.60;;;;;;6226432;28;89018;-70
2023/10/19 00:25:13;;;;;;;11.52;10.38;;;22.30;95.60;;;;;;6212116;28;88478;-70
2023/10/19 00:28:17;;;;;;;10.98;9.82;;;22.40;95.60;;;;;;6205363;28;89572;-70
2023/10/19 00:31:20;;;;;;;11.93;10.45;;;22.30;94.90;;;;;;6221155;28;88371;-70
2023/10/19 00:34:22;;;;;;;16.13;11.25;;;22.40;94.30;;;;;;6213227;28;90223;-70
2023/10/19 00:37:29;;;;;;;12.30;11.02;;;22.40;94.40;;;;;;6232124;28;89495;-70
2023/10/19 00:40:36;;;;;;;11.90;10.70;;;22.40;94.80;;;;;;6231100;28;89341;-69
2023/10/19 00:43:43;;;;;;;11.73;10.52;;;22.40;94.90;;;;;;6221775;28;87828;-69
2023/10/19 00:46:50;;;;;;;12.38;11.18;;;22.40;94.90;;;;;;6221311;28;88715;-69
2023/10/19 00:49:53;;;;;;;13.27;11.45;;;22.30;94.90;;;;;;6210506;28;88106;-70
2023/10/19 00:52:57;;;;;;;12.70;10.93;;;22.30;95.00;;;;;;6216084;28;89134;-70
2023/10/19 00:56:05;;;;;;;12.40;11.10;;;22.40;95.20;;;;;;6227211;28;88331;-70
2023/10/19 00:59:13;;;;;;;12.38;11.18;;;22.30;95.10;;;;;;6220630;28;87620;-70
2023/10/19 01:02:19;;;;;;;13.88;11.70;;;22.30;95.20;;;;;;6221761;28;89017;-70
2023/10/19 01:05:22;;;;;;;12.75;11.45;;;22.30;95.20;;;;;;6215101;28;90328;-70
2023/10/19 01:08:31;;;;;;;12.68;11.48;;;22.30;95.20;;;;;;6209904;28;89022;-68
2023/10/19 01:11:35;;;;;;;12.60;11.40;;;22.30;95.30;;;;;;6211273;28;88996;-70
2023/10/19 01:14:37;;;;;;;13.30;12.00;;;22.40;94.70;;;;;;6215220;28;89002;-70
2023/10/19 01:17:39;;;;;;;13.48;12.13;;;22.40;94.10;;;;;;6211653;28;89039;-72
2023/10/19 01:20:50;;;;;;;12.73;11.52;;;22.40;93.70;;;;;;6224629;28;89088;-71
2023/10/19 01:23:54;;;;;;;12.57;11.27;;;22.30;93.30;;;;;;6226112;28;89104;-70
2023/10/19 01:26:56;;;;;;;12.85;11.60;;;22.30;93.30;;;;;;6220934;28;88762;-71
2023/10/19 01:30:01;;;;;;;13.50;12.20;;;22.30;93.50;;;;;;6219236;28;89028;-71
2023/10/19 01:33:08;;;;;;;13.32;11.75;;;22.30;93.70;;;;;;6210579;28;89257;-70
2023/10/19 01:36:14;;;;;;;12.68;11.52;;;22.30;93.80;;;;;;6216712;28;90018;-72
2023/10/19 01:39:18;;;;;;;12.25;11.10;;;22.30;93.80;;;;;;6214867;28;89428;-71
2023/10/19 01:42:20;;;;;;;12.48;11.27;;;22.30;93.90;;;;;;6211741;28;89106;-71
2023/10/19 01:45:22;;;;;;;12.95;11.65;;;22.30;94.00;;;;;;6209364;28;88991;-71
2023/10/19 01:48:33;;;;;;;12.90;11.60;;;22.30;94.10;;;;;;6207185;28;87983;-71
2023/10/19 01:51:38;;;;;;;13.48;12.13;;;22.30;94.10;;;;;;6216875;28;88937;-71
2023/10/19 01:54:40;;;;;;;12.85;11.57;;;22.20;94.10;;;;;;6210847;28;89177;-71
2023/10/19 01:57:43;;;;;;;12.55;11.30;;;22.20;94.20;;;;;;6217486;28;88395;-72
2023/10/19 02:00:44;;;;;;;12.45;11.35;;;22.20;94.30;;;;;;6228617;28;89163;-71
2023/10/19 02:03:46;;;;;;;12.45;11.35;;;22.20;94.30;;;;;;6225436;28;89058;-71
2023/10/19 02:06:51;;;;;;;13.35;12.07;;;22.20;94.30;;;;;;6218646;28;89336;-71
2023/10/19 02:09:53;;;;;;;11.90;10.80;;;22.30;94.30;;;;;;6214225;28;89147;-72
2023/10/19 02:12:55;;;;;;;13.20;11.90;;;22.20;94.20;;;;;;6221475;28;88028;-71
2023/10/19 02:15:56;;;;;;;12.30;11.20;;;22.30;94.30;;;;;;6215048;28;89055;-72
2023/10/19 02:18:58;;;;;;;12.38;11.27;;;22.20;94.30;;;;;;6213672;28;91915;-72
2023/10/19 02:22:03;;;;;;;12.77;11.63;;;22.20;94.30;;;;;;6221283;28;88537;-71
2023/10/19 02:25:10;;;;;;;13.30;11.90;;;22.20;94.40;;;;;;6215504;28;89103;-72
2023/10/19 02:28:11;;;;;;;13.32;11.98;;;22.20;94.40;;;;;;6229332;28;87981;-72
2023/10/19 02:31:18;;;;;;;12.10;11.00;;;22.20;94.50;;;;;;6206876;28;90242;-71
2023/10/19 02:34:20;;;;;;;12.88;11.68;;;22.20;94.50;;;;;;6208691;28;89423;-72
2023/10/19 02:37:24;;;;;;;12.40;11.23;;;22.20;94.50;;;;;;6205959;28;90154;-71
2023/10/19 02:40:31;;;;;;;13.18;11.88;;;22.20;94.50;;;;;;6208568;28;89174;-72
2023/10/19 02:43:32;;;;;;;13.85;12.45;;;22.20;94.50;;;;;;6230621;28;88649;-72
2023/10/19 02:46:35;;;;;;;12.60;11.40;;;22.20;94.60;;;;;;6217370;28;88913;-72
2023/10/19 02:49:39;;;;;;;12.38;11.18;;;22.20;94.60;;;;;;6220670;28;89352;-71
2023/10/19 02:52:41;;;;;;;12.73;11.48;;;22.20;94.50;;;;;;6218618;28;89084;-70
2023/10/19 02:55:45;;;;;;;12.65;11.45;;;22.20;94.60;;;;;;6221950;28;89060;-71
2023/10/19 02:58:48;;;;;;;12.30;11.20;;;22.20;94.50;;;;;;6228178;28;88802;-73
2023/10/19 03:01:51;;;;;;;12.63;11.52;;;22.20;94.40;;;;;;6212783;28;88912;-72
2023/10/19 03:04:53;;;;;;;12.52;11.30;;;22.20;94.40;;;;;;6220819;28;89463;-71
2023/10/19 03:07:55;;;;;;;12.15;10.95;;;22.20;94.40;;;;;;6214412;28;90404;-72
2023/10/19 03:11:03;;;;;;;12.40;11.23;;;22.20;94.40;;;;;;6230362;28;89358;-71
2023/10/19 03:14:06;;;;;;;12.50;11.30;;;22.20;94.50;;;;;;6219261;28;89110;-71
2023/10/19 03:17:08;;;;;;;12.07;10.98;;;22.20;94.50;;;;;;6209662;28;89130;-72
2023/10/19 03:20:11;;;;;;;12.43;11.32;;;22.10;94.50;;;;;;6215150;28;89212;-72
2023/10/19 03:23:14;;;;;;;12.65;11.45;;;22.10;94.50;;;;;;6210199;28;89114;-71
2023/10/19 03:26:31;;;;;;;12.60;11.38;;;22.10;94.50;;;;;;6210853;28;89291;-71
2023/10/19 03:29:38;;;;;;;12.18;11.07;;;22.10;94.50;;;;;;6217494;28;88295;-70
2023/10/19 03:32:40;;;;;;;12.60;11.40;;;22.10;94.50;;;;;;6227516;28;88823;-72
2023/10/19 03:35:42;;;;;;;12.43;11.23;;;22.10;94.50;;;;;;6217168;28;89153;-71
2023/10/19 03:38:45;;;;;;;11.80;10.70;;;22.10;94.50;;;;;;6208033;28;89986;-70
2023/10/19 03:41:51;;;;;;;12.20;11.10;;;22.10;94.50;;;;;;6228924;28;87951;-71
2023/10/19 03:44:55;;;;;;;12.00;10.93;;;22.10;94.50;;;;;;6205641;28;89526;-71
2023/10/19 03:48:00;;;;;;;12.35;11.20;;;22.10;94.50;;;;;;6218136;28;89132;-71
2023/10/19 03:51:02;;;;;;;12.02;10.95;;;22.10;94.50;;;;;;6209493;28;89614;-71
2023/10/19 03:54:09;;;;;;;11.82;10.73;;;22.20;94.60;;;;;;6213135;28;89018;-71
2023/10/19 03:57:15;;;;;;;11.85;10.75;;;22.10;94.50;;;;;;6211285;28;89079;-71
2023/10/19 04:00:19;;;;;;;11.35;10.35;;;22.20;94.60;;;;;;6215977;28;88415;-71
2023/10/19 04:03:24;;;;;;;11.30;10.30;;;22.20;94.60;;;;;;6210335;28;88149;-71
2023/10/19 04:06:27;;;;;;;12.35;11.13;;;22.10;94.60;;;;;;6223365;28;89396;-72
2023/10/19 04:09:29;;;;;;;12.23;10.93;;;22.10;94.60;;;;;;6204723;28;89867;-72
2023/10/19 04:12:35;;;;;;;11.50;10.40;;;22.10;94.50;;;;;;6226386;28;88712;-71
2023/10/19 04:15:37;;;;;;;11.38;10.38;;;22.10;94.60;;;;;;6205967;28;89210;-71
2023/10/19 04:18:43;;;;;;;10.98;9.98;;;22.10;94.60;;;;;;6216072;28;89037;-72
2023/10/19 04:21:46;;;;;;;11.60;10.57;;;22.10;94.60;;;;;;6214422;28;89087;-72
2023/10/19 04:24:48;;;;;;;11.60;10.60;;;22.10;94.60;;;;;;6216168;28;88989;-70
2023/10/19 04:27:51;;;;;;;11.57;10.48;;;22.10;94.60;;;;;;6218038;28;89232;-72
2023/10/19 04:30:53;;;;;;;11.30;10.30;;;22.10;94.70;;;;;;6211137;28;88683;-70
2023/10/19 04:33:55;;;;;;;11.10;10.10;;;22.10;94.70;;;;;;6211791;28;88986;-72
2023/10/19 04:36:57;;;;;;;11.98;10.75;;;22.10;94.70;;;;;;6210245;28;89076;-72
2023/10/19 04:40:00;;;;;;;12.98;11.68;;;22.20;94.70;;;;;;6217825;28;89930;-72
2023/10/19 04:43:05;;;;;;;13.15;11.85;;;22.20;96.10;;;;;;6212166;28;90293;-73
2023/10/19 04:46:11;;;;;;;12.73;11.23;;;22.30;96.60;;;;;;6225988;28;89291;-74
2023/10/19 04:49:12;;;;;;;12.50;11.20;;;22.20;95.60;;;;;;6215085;28;89105;-74
2023/10/19 04:52:14;;;;;;;12.45;11.25;;;22.30;95.30;;;;;;6212169;28;89274;-75
2023/10/19 04:55:17;;;;;;;12.85;11.63;;;22.30;95.10;;;;;;6211927;28;89404;-74
2023/10/19 04:58:20;;;;;;;13.00;11.70;;;22.30;95.00;;;;;;6213975;28;88074;-73
2023/10/19 05:01:22;;;;;;;12.95;11.65;;;22.30;95.20;;;;;;6217043;28;87536;-71
2023/10/19 05:04:24;;;;;;;12.65;11.45;;;22.30;95.20;;;;;;6217162;28;89264;-72
2023/10/19 05:07:26;;;;;;;12.02;10.90;;;22.30;95.30;;;;;;6214737;28;89020;-73
2023/10/19 05:10:28;;;;;;;11.98;10.98;;;22.30;95.40;;;;;;6223393;28;88142;-72
2023/10/19 05:13:33;;;;;;;12.13;11.02;;;22.30;95.40;;;;;;6210552;28;89025;-73
2023/10/19 05:16:35;;;;;;;12.52;11.32;;;22.30;95.50;;;;;;6215450;28;88873;-72
2023/10/19 05:19:38;;;;;;;11.98;10.88;;;22.30;95.60;;;;;;6208414;28;89086;-73
2023/10/19 05:22:40;;;;;;;12.60;11.50;;;22.30;95.60;;;;;;6220855;28;89154;-73
2023/10/19 05:25:42;;;;;;;12.10;11.00;;;22.40;95.60;;;;;;6207698;28;87917;-72
2023/10/19 05:28:47;;;;;;;13.00;11.70;;;22.40;95.60;;;;;;6224089;28;89056;-72
2023/10/19 05:31:53;;;;;;;12.88;11.68;;;22.40;95.70;;;;;;6211632;28;88914;-72
2023/10/19 05:34:56;;;;;;;12.63;11.43;;;22.30;95.70;;;;;;6231210;28;89197;-72
2023/10/19 05:37:58;;;;;;;12.77;11.57;;;22.30;95.70;;;;;;6230290;28;88119;-71
2023/10/19 05:41:00;;;;;;;12.30;11.20;;;22.40;95.80;;;;;;6221884;28;90071;-71
2023/10/19 05:44:04;;;;;;;13.27;11.98;;;22.30;95.80;;;;;;6219101;28;89000;-72
2023/10/19 05:47:06;;;;;;;12.73;11.52;;;22.30;95.80;;;;;;6224030;28;89053;-73
2023/10/19 05:50:08;;;;;;;13.23;12.02;;;22.30;95.90;;;;;;6215591;28;89054;-72
2023/10/19 05:53:10;;;;;;;12.70;11.50;;;22.30;95.90;;;;;;6218412;28;89580;-72
2023/10/19 05:56:12;;;;;;;13.20;12.00;;;22.30;96.00;;;;;;6214580;28;89108;-74
2023/10/19 05:59:16;;;;;;;14.95;12.63;;;22.30;96.00;;;;;;6212530;28;89491;-70
2023/10/19 06:02:17;;;;;;;12.77;11.57;;;22.30;95.90;;;;;;6208138;28;88382;-70
2023/10/19 06:05:20;;;;;;;14.80;13.30;;;22.30;96.20;;;;;;6211846;28;89062;-72
2023/10/19 06:08:22;;;;;;;14.45;12.95;;;22.30;96.00;;;;;;6218303;28;89109;-72
2023/10/19 06:11:24;;;;;;;13.15;11.90;;;22.40;96.00;;;;;;6213486;28;88892;-72
2023/10/19 06:14:30;;;;;;;14.43;12.93;;;22.40;95.90;;;;;;6224709;28;89351;-72
2023/10/19 06:17:31;;;;;;;15.82;13.52;;;22.40;95.80;;;;;;6219136;28;89214;-71
2023/10/19 06:20:33;;;;;;;14.82;13.00;;;22.40;95.70;;;;;;6221075;28;90609;-73
2023/10/19 06:23:36;;;;;;;16.83;14.70;;;22.40;95.80;;;;;;6216874;28;89145;-72
2023/10/19 06:26:38;;;;;;;22.52;16.10;;;22.40;95.90;;;;;;6163394;28;1276013;-73
2023/10/19 06:29:43;;;;;;;23.23;15.43;;;22.40;96.60;;;;;;6229256;28;89019;-72
2023/10/19 06:32:48;;;;;;;20.95;15.52;;;22.40;97.10;;;;;;6225914;28;88148;-72
2023/10/19 06:35:50;;;;;;;22.63;16.50;;;22.30;97.30;;;;;;6206520;28;89427;-72
2023/10/19 06:38:54;;;;;;;25.23;17.35;;;22.30;97.50;;;;;;6228474;28;89249;-73
2023/10/19 06:41:56;;;;;;;22.15;16.38;;;22.30;97.50;;;;;;6222488;28;90213;-72
2023/10/19 06:44:59;;;;;;;20.70;15.77;;;22.30;97.20;;;;;;6216732;28;88265;-72
2023/10/19 06:48:02;;;;;;;17.88;14.45;;;22.30;97.00;;;;;;6218103;28;89066;-72
2023/10/19 06:51:05;;;;;;;17.98;14.90;;;22.30;96.90;;;;;;6210185;28;87893;-72
2023/10/19 06:54:08;;;;;;;20.70;14.77;;;22.30;96.90;;;;;;6214371;28;88265;-72
2023/10/19 06:57:10;;;;;;;24.90;16.95;;;22.30;97.00;;;;;;6213223;28;89426;-73
2023/10/19 07:00:15;;;;;;;29.48;18.58;;;22.40;97.30;;;;;;6228615;28;89223;-72
2023/10/19 07:03:17;;;;;;;33.35;19.40;;;22.30;97.90;;;;;;6223240;28;88273;-72
2023/10/19 07:06:19;;;;;;;31.75;19.33;;;22.40;99.20;;;;;;6215487;28;89039;-72
2023/10/19 07:09:22;;;;;;;30.35;18.25;;;22.40;99.50;;;;;;6214265;28;88801;-72
2023/10/19 07:12:24;;;;;;;24.80;15.98;;;22.40;99.60;;;;;;6210373;28;90316;-71
2023/10/19 07:15:29;;;;;;;22.13;15.60;;;22.40;99.20;;;;;;6217023;28;89480;-72
2023/10/19 07:18:31;;;;;;;20.67;14.75;;;22.40;99.00;;;;;;6217680;28;88026;-72
2023/10/19 07:21:35;;;;;;;19.13;14.55;;;22.40;98.90;;;;;;6221293;28;89166;-73
2023/10/19 07:24:38;;;;;;;19.38;15.00;;;22.40;98.70;;;;;;6223111;28;89397;-73
2023/10/19 07:27:42;;;;;;;19.55;14.70;;;22.50;98.50;;;;;;6214905;28;89225;-73
2023/10/19 07:30:46;;;;;;;18.67;14.40;;;22.50;98.40;;;;;;6210897;28;89045;-72
2023/10/19 07:33:49;;;;;;;17.25;13.77;;;22.50;98.60;;;;;;6213554;28;88601;-72
2023/10/19 07:36:53;;;;;;;17.50;13.65;;;22.50;98.00;;;;;;6228263;28;89096;-72
2023/10/19 07:39:57;;;;;;;17.90;13.38;;;22.50;97.90;;;;;;6219708;28;89114;-73
2023/10/19 07:42:59;;;;;;;19.10;13.48;;;22.50;97.80;;;;;;6211295;28;90216;-72
2023/10/19 07:46:03;;;;;;;16.10;13.10;;;22.50;97.60;;;;;;6212804;28;87909;-72
2023/10/19 07:49:05;;;;;;;15.50;12.35;;;22.50;97.60;;;;;;6209717;28;89379;-73
2023/10/19 07:52:08;;;;;;;17.77;13.02;;;22.50;97.50;;;;;;6209896;28;88042;-73
2023/10/19 07:55:10;;;;;;;16.75;13.00;;;22.50;97.40;;;;;;6218570;28;89211;-72
2023/10/19 07:58:12;;;;;;;14.98;12.57;;;22.50;97.60;;;;;;6224239;28;88965;-71
2023/10/19 08:01:16;;;;;;;14.85;12.70;;;22.60;99.90;;;;;;6216831;28;88990;-72
2023/10/19 08:04:18;;;;;;;14.15;12.25;;;22.60;99.90;;;;;;6209085;28;88021;-72
2023/10/19 08:07:20;;;;;;;14.07;12.23;;;22.70;99.90;;;;;;6206240;28;89010;-71
2023/10/19 08:10:22;;;;;;;14.07;11.82;;;22.80;99.90;;;;;;6213628;28;88982;-72
2023/10/19 08:13:26;;;;;;;15.50;11.88;;;22.80;99.90;;;;;;6212624;28;90124;-72
2023/10/19 08:16:29;;;;;;;13.10;11.73;;;22.80;99.90;;;;;;6205347;28;89209;-72
2023/10/19 08:19:31;;;;;;;14.63;11.93;;;22.90;99.90;;;;;;6206521;28;87948;-72
2023/10/19 08:22:33;;;;;;;14.27;11.90;;;22.90;99.60;;;;;;6215605;28;89052;-73
2023/10/19 08:25:35;;;;;;;12.18;10.68;;;22.90;99.20;;;;;;6226902;28;88998;-72
2023/10/19 08:28:37;;;;;;;13.23;11.80;;;22.90;99.10;;;;;;6213536;28;88057;-72
2023/10/19 08:31:41;;;;;;;12.30;11.07;;;22.80;98.80;;;;;;6214697;28;89312;-72
2023/10/19 08:34:43;;;;;;;13.52;11.75;;;22.80;98.50;;;;;;6213732;28;88487;-72
2023/10/19 08:37:46;;;;;;;13.38;11.43;;;22.80;98.20;;;;;;6215240;28;89056;-72
2023/10/19 08:40:50;;;;;;;12.10;10.90;;;22.80;98.10;;;;;;6226291;28;89050;-72
2023/10/19 08:43:55;;;;;;;12.32;10.65;;;22.80;97.80;;;;;;6218358;28;90285;-72
2023/10/19 08:47:00;;;;;;;13.30;11.35;;;22.80;97.70;;;;;;6207764;28;89152;-72
2023/10/19 08:50:02;;;;;;;12.48;11.18;;;22.80;97.60;;;;;;6209177;28;88101;-72
2023/10/19 08:53:06;;;;;;;11.98;10.63;;;22.80;97.50;;;;;;6226614;28;88040;-72
2023/10/19 08:56:08;;;;;;;11.63;10.48;;;22.80;97.40;;;;;;6212332;28;87992;-72
2023/10/19 08:59:12;;;;;;;11.07;9.98;;;22.70;97.40;;;;;;6213176;28;88891;-72
2023/10/19 09:02:16;;;;;;;11.30;10.18;;;22.70;97.40;;;;;;6216099;28;89215;-72
2023/10/19 09:05:22;;;;;;;12.32;10.85;;;22.70;97.30;;;;;;6219405;28;88197;-72
2023/10/19 09:08:24;;;;;;;11.45;10.35;;;22.70;97.30;;;;;;6215750;28;89023;-72
2023/10/19 09:11:26;;;;;;;11.10;10.00;;;22.70;97.30;;;;;;6222480;28;89312;-70
2023/10/19 09:14:33;;;;;;;12.65;10.32;;;22.70;97.30;;;;;;6222999;28;90242;-73
2023/10/19 09:17:37;;;;;;;12.38;10.45;;;22.70;98.50;;;;;;6219107;28;89029;-73
2023/10/19 09:20:39;;;;;;;11.07;9.70;;;22.70;98.20;;;;;;6223968;28;89143;-73
2023/10/19 09:23:41;;;;;;;11.63;9.98;;;22.70;97.90;;;;;;6215095;28;89247;-74
2023/10/19 09:26:43;;;;;;;11.00;9.90;;;22.70;97.80;;;;;;6223898;28;89122;-74
2023/10/19 09:29:45;;;;;;;11.98;10.48;;;22.70;97.60;;;;;;6232891;28;89097;-73
2023/10/19 09:32:49;;;;;;;11.45;9.90;;;22.70;97.60;;;;;;6231488;28;89013;-73
2023/10/19 09:35:52;;;;;;;11.20;10.07;;;22.70;97.90;;;;;;6228075;28;88424;-73
2023/10/19 09:38:57;;;;;;;13.07;10.00;;;22.60;97.40;;;;;;6210972;28;89213;-68
2023/10/19 09:42:01;;;;;;;14.48;9.95;;;22.60;97.80;;;;;;6209112;28;89107;-69
2023/10/19 09:45:07;;;;;;;14.50;10.60;;;22.60;99.90;;;;;;6209354;28;90103;-69
2023/10/19 09:48:16;;;;;;;11.35;9.32;;;22.60;99.90;;;;;;6220649;28;89021;-71
2023/10/19 09:51:20;;;;;;;13.30;9.85;;;22.70;99.90;;;;;;6229752;28;89118;-71
2023/10/19 09:54:31;;;;;;;12.80;9.52;;;22.70;99.90;;;;;;6211398;28;89000;-71
2023/10/19 09:57:42;;;;;;;10.43;9.30;;;22.70;99.90;;;;;;6221384;28;89318;-70
2023/10/19 10:00:46;;;;;;;12.57;9.40;;;22.70;99.90;;;;;;6216668;28;89097;-71
2023/10/19 10:03:51;;;;;;;11.25;9.50;;;22.60;99.90;;;;;;6220020;28;89148;-70
2023/10/19 10:07:00;;;;;;;10.43;9.23;;;22.60;99.80;;;;;;6226394;28;88351;-70
2023/10/19 10:10:04;;;;;;;10.65;8.95;;;22.60;99.80;;;;;;6217202;28;89432;-70
2023/10/19 10:13:39;;;;;;;13.93;9.70;;;22.60;99.60;;;;;;6216040;28;89040;-70
2023/10/19 10:16:44;;;;;;;12.50;9.43;;;22.60;99.40;;;;;;6213665;28;89902;-70
2023/10/19 10:19:48;;;;;;;10.10;9.02;;;22.60;99.40;;;;;;6219540;28;89225;-71
2023/10/19 10:23:17;;;;;;;10.98;9.25;;;22.60;99.30;;;;;;6219685;28;89036;-71
2023/10/19 10:26:24;;;;;;;10.02;9.02;;;22.60;99.30;;;;;;6231705;28;88234;-71
2023/10/19 10:29:27;;;;;;;10.30;9.20;;;22.60;99.20;;;;;;6217627;28;89119;-70
2023/10/19 10:32:44;;;;;;;11.48;9.02;;;22.60;99.30;;;;;;6223996;28;89847;-70
2023/10/19 10:35:57;;;;;;;10.63;8.70;;;22.60;99.30;;;;;;6218222;28;89064;-71
2023/10/19 10:39:05;;;;;;;11.55;9.25;;;22.60;99.40;;;;;;6216259;28;88559;-70
2023/10/19 10:42:09;;;;;;;9.65;8.68;;;22.60;99.50;;;;;;6223463;28;89177;-70
2023/10/19 10:45:21;;;;;;;11.40;9.45;;;22.60;99.60;;;;;;6231640;28;87760;-71
2023/10/19 10:48:23;;;;;;;12.02;9.23;;;22.60;99.70;;;;;;6218718;28;89242;-70
2023/10/19 10:51:28;;;;;;;10.02;8.77;;;22.60;99.80;;;;;;6227914;28;88112;-70
2023/10/19 10:54:30;;;;;;;9.52;8.43;;;22.60;99.50;;;;;;6217133;28;87999;-71
2023/10/19 10:57:33;;;;;;;9.50;8.60;;;22.60;99.30;;;;;;6217307;28;89069;-71
2023/10/19 11:00:43;;;;;;;10.20;8.90;;;22.60;99.20;;;;;;6220098;28;89376;-70
2023/10/19 11:03:46;;;;;;;9.85;8.77;;;22.60;99.20;;;;;;6215170;28;89008;-70
2023/10/19 11:06:55;;;;;;;9.32;8.35;;;22.60;99.10;;;;;;6225623;28;89083;-70
2023/10/19 11:09:57;;;;;;;9.30;8.40;;;22.60;99.10;;;;;;6209618;28;88105;-71
2023/10/19 11:13:02;;;;;;;9.77;8.60;;;22.60;99.20;;;;;;6212044;28;89341;-71
2023/10/19 11:16:06;;;;;;;8.85;8.00;;;22.60;99.40;;;;;;6225759;28;89146;-70
2023/10/19 11:19:09;;;;;;;8.80;7.90;;;22.60;99.40;;;;;;6212730;28;89948;-71
2023/10/19 11:22:12;;;;;;;8.73;7.72;;;22.60;99.40;;;;;;6207405;28;89360;-71
2023/10/19 11:25:22;;;;;;;9.63;8.65;;;22.60;99.50;;;;;;6209374;28;89328;-70
2023/10/19 11:28:28;;;;;;;9.13;8.23;;;22.60;99.60;;;;;;6219885;28;89033;-71
2023/10/19 11:31:37;;;;;;;9.05;8.15;;;22.60;99.80;;;;;;6215094;28;89161;-70
2023/10/19 11:34:39;;;;;;;9.05;8.15;;;22.60;99.80;;;;;;6209776;28;89115;-71
2023/10/19 11:37:50;;;;;;;8.25;7.45;;;22.60;99.80;;;;;;6214957;28;89091;-71
2023/10/19 11:40:52;;;;;;;8.88;8.07;;;22.60;99.90;;;;;;6220519;28;88303;-71
2023/10/19 11:43:54;;;;;;;8.52;7.68;;;22.60;99.60;;;;;;6212751;28;87946;-71
2023/10/19 11:46:56;;;;;;;9.23;8.27;;;22.60;99.50;;;;;;6212657;28;89307;-71
2023/10/19 11:49:58;;;;;;;8.75;7.95;;;22.60;99.50;;;;;;6210670;28;90023;-70
2023/10/19 11:53:03;;;;;;;9.00;8.20;;;22.60;99.50;;;;;;6214540;28;89063;-70
2023/10/19 11:56:06;;;;;;;8.80;8.00;;;22.60;99.70;;;;;;6215291;28;89061;-70
2023/10/19 11:59:08;;;;;;;8.35;7.55;;;22.60;99.70;;;;;;6227034;28;89182;-70
2023/10/19 12:02:11;;;;;;;9.05;8.18;;;22.60;99.70;;;;;;6218748;28;89099;-70
2023/10/19 12:05:13;;;;;;;8.55;7.75;;;22.60;99.80;;;;;;6221601;28;89101;-70
2023/10/19 12:08:17;;;;;;;8.13;7.32;;;22.60;99.70;;;;;;6219476;28;89348;-70
2023/10/19 12:11:19;;;;;;;9.52;7.82;;;22.60;99.60;;;;;;6223457;28;87237;-69
2023/10/19 12:14:22;;;;;;;7.90;7.15;;;22.60;99.80;;;;;;6220615;28;89035;-69
2023/10/19 12:17:26;;;;;;;8.05;7.25;;;22.60;99.80;;;;;;6206920;28;89198;-69
2023/10/19 12:20:28;;;;;;;7.47;6.78;;;22.60;99.30;;;;;;6206293;28;89952;-70
2023/10/19 12:23:33;;;;;;;8.35;6.78;;;22.60;98.80;;;;;;6218778;28;89009;-68
2023/10/19 12:26:35;;;;;;;7.30;6.60;;;22.60;98.30;;;;;;6222191;28;89070;-70
2023/10/19 12:29:37;;;;;;;7.78;6.97;;;22.60;98.50;;;;;;6212232;28;89088;-69
2023/10/19 12:32:40;;;;;;;8.65;6.90;;;22.60;97.90;;;;;;6226530;28;88294;-70
2023/10/19 12:35:48;;;;;;;7.43;6.72;;;22.60;98.00;;;;;;6214065;28;89287;-70
2023/10/19 12:38:53;;;;;;;7.55;6.80;;;22.60;98.00;;;;;;6209548;28;89284;-70
2023/10/19 12:41:56;;;;;;;9.30;7.25;;;22.60;98.00;;;;;;6218543;28;87266;-69
2023/10/19 12:44:59;;;;;;;7.43;6.72;;;22.50;97.90;;;;;;6221780;28;89468;-69
2023/10/19 12:48:01;;;;;;;7.70;7.00;;;22.60;98.00;;;;;;6218380;28;89029;-67
2023/10/19 12:51:06;;;;;;;7.93;7.13;;;22.50;97.80;;;;;;6215352;28;89989;-67
2023/10/19 12:54:11;;;;;;;7.03;6.32;;;22.60;97.60;;;;;;6213433;28;89167;-68
2023/10/19 12:57:13;;;;;;;7.65;6.85;;;22.50;98.00;;;;;;6220341;28;89260;-68
2023/10/19 13:00:25;;;;;;;12.38;6.97;;;22.60;98.40;;;;;;6230073;28;89221;-67
2023/10/19 13:03:31;;;;;;;9.88;7.10;;;22.50;98.50;;;;;;6227404;28;89486;-67
2023/10/19 13:06:33;;;;;;;10.63;7.03;;;22.60;98.80;;;;;;6209810;28;89092;-67
2023/10/19 13:09:36;;;;;;;11.52;7.97;;;22.60;98.80;;;;;;6211134;28;89143;-68
2023/10/19 13:12:38;;;;;;;11.45;7.95;;;22.60;99.00;;;;;;6222742;28;88239;-67
2023/10/19 13:15:41;;;;;;;13.88;8.15;;;22.60;99.50;;;;;;6233247;28;89133;-67
2023/10/19 13:18:43;;;;;;;13.57;8.88;;;22.60;99.90;;;;;;6224749;28;88052;-68
2023/10/19 13:21:45;;;;;;;14.75;9.27;;;22.60;99.90;;;;;;6220606;28;89978;-67
2023/10/19 13:24:50;;;;;;;12.07;8.00;;;22.60;99.90;;;;;;6215262;28;89142;-68
2023/10/19 13:27:52;;;;;;;12.32;9.35;;;22.60;99.90;;;;;;6223391;28;89024;-68
2023/10/19 13:30:54;;;;;;;13.52;8.60;;;22.60;99.90;;;;;;6222762;28;89332;-67
2023/10/19 13:33:57;;;;;;;11.57;8.30;;;22.60;99.90;;;;;;6214488;28;89415;-68
2023/10/19 13:37:00;;;;;;;11.32;7.90;;;22.60;99.90;;;;;;6229194;28;89041;-67
2023/10/19 13:40:06;;;;;;;9.45;7.50;;;22.60;99.90;;;;;;6219526;28;87949;-68
2023/10/19 13:43:13;;;;;;;10.82;7.82;;;22.60;99.90;;;;;;6222923;28;87150;-67
2023/10/19 13:46:15;;;;;;;11.88;8.30;;;22.60;99.90;;;;;;6223428;28;89009;-67
2023/10/19 13:49:18;;;;;;;13.90;8.98;;;22.60;99.90;;;;;;6214792;28;89346;-68
2023/10/19 13:52:20;;;;;;;15.85;9.77;;;22.60;99.90;;;;;;6214699;28;90012;-67
2023/10/19 13:55:28;;;;;;;16.02;10.50;;;22.60;99.90;;;;;;6218277;28;88252;-68
2023/10/19 13:58:30;;;;;;;13.85;9.55;;;22.70;99.90;;;;;;6227915;28;89158;-68
2023/10/19 14:01:32;;;;;;;12.63;9.13;;;22.70;99.90;;;;;;6230515;28;89189;-68
2023/10/19 14:04:33;;;;;;;13.30;9.05;;;22.70;99.90;;;;;;6217428;28;89059;-68
2023/10/19 14:07:35;;;;;;;9.45;8.07;;;22.70;99.90;;;;;;6227872;28;89050;-68
2023/10/19 14:10:41;;;;;;;10.63;7.63;;;22.70;99.90;;;;;;6216177;28;88990;-68
2023/10/19 14:13:43;;;;;;;9.93;7.68;;;22.70;99.90;;;;;;6219039;28;88373;-68
2023/10/19 14:16:45;;;;;;;10.20;7.65;;;22.70;99.90;;;;;;6224065;28;89244;-68
2023/10/19 14:19:47;;;;;;;9.18;7.35;;;22.80;99.90;;;;;;6222707;28;89061;-68
2023/10/19 14:22:53;;;;;;;10.68;7.70;;;22.80;99.90;;;;;;6218519;28;90024;-68
2023/10/19 14:25:56;;;;;;;8.82;7.57;;;22.80;99.90;;;;;;6220036;28;89140;-68
2023/10/19 14:28:58;;;;;;;9.25;7.30;;;22.70;99.90;;;;;;6222892;28;89417;-67
2023/10/19 14:32:00;;;;;;;8.25;7.32;;;22.70;99.90;;;;;;6227024;28;89527;-69
2023/10/19 14:35:03;;;;;;;11.70;8.02;;;22.80;99.90;;;;;;6219531;28;89035;-69
2023/10/19 14:38:06;;;;;;;11.70;7.75;;;22.90;99.90;;;;;;6216437;28;89105;-69
2023/10/19 14:41:09;;;;;;;10.52;7.15;;;23.00;99.90;;;;;;6220672;28;88991;-70
2023/10/19 14:44:11;;;;;;;9.35;7.40;;;23.00;99.90;;;;;;6229764;28;88262;-70
2023/10/19 14:47:13;;;;;;;13.30;7.50;;;23.00;99.90;;;;;;6213785;28;89069;-69
2023/10/19 14:50:17;;;;;;;11.15;7.72;;;23.00;99.90;;;;;;6217826;28;89116;-70
2023/10/19 14:53:19;;;;;;;8.52;6.82;;;23.00;99.90;;;;;;6215436;28;88872;-70
2023/10/19 14:56:23;;;;;;;9.27;7.10;;;23.00;99.90;;;;;;6216396;28;89071;-70
2023/10/19 14:59:25;;;;;;;8.55;6.95;;;23.00;99.90;;;;;;6228711;28;89030;-70
2023/10/19 15:02:27;;;;;;;8.00;6.90;;;23.00;99.90;;;;;;6223741;28;89493;-70
2023/10/19 15:05:29;;;;;;;7.68;6.78;;;23.00;99.90;;;;;;6211393;28;89184;-70
2023/10/19 15:08:31;;;;;;;7.85;6.80;;;23.00;99.90;;;;;;6215638;28;89090;-70
2023/10/19 15:11:35;;;;;;;8.15;6.78;;;23.00;99.90;;;;;;6214609;28;89026;-70
2023/10/19 15:14:42;;;;;;;9.40;7.35;;;23.00;99.90;;;;;;6221869;28;88429;-70
2023/10/19 15:17:44;;;;;;;8.85;6.85;;;23.00;99.90;;;;;;6217148;28;89346;-70
2023/10/19 15:20:46;;;;;;;8.55;6.65;;;23.00;99.90;;;;;;6222863;28;89030;-71
2023/10/19 15:23:49;;;;;;;8.70;7.07;;;23.00;99.90;;;;;;6208502;28;89262;-70
2023/10/19 15:26:53;;;;;;;7.90;6.63;;;22.90;99.90;;;;;;6223316;28;90925;-68
2023/10/19 15:29:56;;;;;;;8.88;6.78;;;22.90;99.90;;;;;;6218910;28;89020;-67
2023/10/19 15:32:58;;;;;;;8.93;6.90;;;22.90;99.90;;;;;;6219012;28;89094;-67
2023/10/19 15:36:00;;;;;;;8.15;6.30;;;22.90;99.90;;;;;;6225947;28;87908;-66
2023/10/19 15:39:02;;;;;;;9.52;7.20;;;22.90;99.90;;;;;;6217182;28;88220;-69